地図

経路データ

SID SEASON NUMBER BASIN SUBBASIN NAME ISO_TIME NATURE LAT LON WMO_WIND WMO_PRES WMO_AGENCY TRACK_TYPE DIST2LAND LANDFALL IFLAG USA_AGENCY USA_ATCF_ID USA_LAT USA_LON USA_RECORD USA_STATUS USA_WIND USA_PRES USA_SSHS USA_R34_NE USA_R34_SE USA_R34_SW USA_R34_NW USA_R50_NE USA_R50_SE USA_R50_SW USA_R50_NW USA_R64_NE USA_R64_SE USA_R64_SW USA_R64_NW USA_POCI USA_ROCI USA_RMW USA_EYE TOKYO_LAT TOKYO_LON TOKYO_GRADE TOKYO_WIND TOKYO_PRES TOKYO_R50_DIR TOKYO_R50_LONG TOKYO_R50_SHORT TOKYO_R30_DIR TOKYO_R30_LONG TOKYO_R30_SHORT TOKYO_LAND CMA_LAT CMA_LON CMA_CAT CMA_WIND CMA_PRES HKO_LAT HKO_LON HKO_CAT HKO_WIND HKO_PRES NEWDELHI_LAT NEWDELHI_LON NEWDELHI_GRADE NEWDELHI_WIND NEWDELHI_PRES NEWDELHI_CI NEWDELHI_DP NEWDELHI_POCI REUNION_LAT REUNION_LON REUNION_TYPE REUNION_WIND REUNION_PRES REUNION_TNUM REUNION_CI REUNION_RMW REUNION_R34_NE REUNION_R34_SE REUNION_R34_SW REUNION_R34_NW REUNION_R50_NE REUNION_R50_SE REUNION_R50_SW REUNION_R50_NW REUNION_R64_NE REUNION_R64_SE REUNION_R64_SW REUNION_R64_NW BOM_LAT BOM_LON BOM_TYPE BOM_WIND BOM_PRES BOM_TNUM BOM_CI BOM_RMW BOM_R34_NE BOM_R34_SE BOM_R34_SW BOM_R34_NW BOM_R50_NE BOM_R50_SE BOM_R50_SW BOM_R50_NW BOM_R64_NE BOM_R64_SE BOM_R64_SW BOM_R64_NW BOM_ROCI BOM_POCI BOM_EYE BOM_POS_METHOD BOM_PRES_METHOD NADI_LAT NADI_LON NADI_CAT NADI_WIND NADI_PRES WELLINGTON_LAT WELLINGTON_LON WELLINGTON_WIND WELLINGTON_PRES DS824_LAT DS824_LON DS824_STAGE DS824_WIND DS824_PRES TD9636_LAT TD9636_LON TD9636_STAGE TD9636_WIND TD9636_PRES TD9635_LAT TD9635_LON TD9635_WIND TD9635_PRES TD9635_ROCI NEUMANN_LAT NEUMANN_LON NEUMANN_CLASS NEUMANN_WIND NEUMANN_PRES MLC_LAT MLC_LON MLC_CLASS MLC_WIND MLC_PRES USA_GUST BOM_GUST BOM_GUST_PER REUNION_GUST REUNION_GUST_PER USA_SEAHGT USA_SEARAD_NE USA_SEARAD_SE USA_SEARAD_SW USA_SEARAD_NW STORM_SPEED STORM_DIR
1878229N32286 1878 13 NA NA NOT_NAMED 1878-08-16 12:00:00 TS 31.5000 -74.0000 main 425 412 _____________O -1 31.5000 -74.0000 TD 30 5 23
1878229N32286 1878 13 NA NA NOT_NAMED 1878-08-16 15:00:00 TS 31.7125 -73.9001 main 412 400 _____________P -1 31.7125 -73.9001 TD 30 4 23
1878229N32286 1878 13 NA NA NOT_NAMED 1878-08-16 18:00:00 TS 31.9000 -73.8000 main 400 391 _____________O -1 31.9000 -73.8000 TD 30 4 27
1878229N32286 1878 13 NA NA NOT_NAMED 1878-08-16 21:00:00 TS 32.0500 -73.6999 main 397 387 _____________P -1 32.0500 -73.6999 TD 32 3 29
1878229N32286 1878 13 NA NA NOT_NAMED 1878-08-17 00:00:00 TS 32.2000 -73.6000 main 387 377 _____________O -1 32.2000 -73.6000 TS 35 4 25
1878229N32286 1878 13 NA NA NOT_NAMED 1878-08-17 03:00:00 TS 32.3924 -73.5149 main 377 369 _____________P -1 32.3924 -73.5149 TS 37 4 23
1878229N32286 1878 13 NA NA NOT_NAMED 1878-08-17 06:00:00 TS 32.6000 -73.4000 main 369 355 _____________O -1 32.6000 -73.4000 TS 40 4 21
1878229N32286 1878 13 NA NA NOT_NAMED 1878-08-17 09:00:00 TS 32.8063 -73.3269 main 362 355 _____________P -1 32.8063 -73.3269 TS 42 5 40
1878229N32286 1878 13 NA NA NOT_NAMED 1878-08-17 12:00:00 TS 33.0000 -73.0000 main 370 370 _____________O -1 33.0000 -73.0000 TS 45 10 70
1878229N32286 1878 13 NA NA NOT_NAMED 1878-08-17 15:00:00 TS 33.1586 -72.1626 main 417 417 _____________P -1 33.1586 -72.1626 TS 47 16 79
1878229N32286 1878 13 NA NA NOT_NAMED 1878-08-17 18:00:00 TS 33.3000 -71.1000 main 489 489 _____________O -1 33.3000 -71.1000 TS 50 17 80
1878229N32286 1878 13 NA NA NOT_NAMED 1878-08-17 21:00:00 TS 33.4493 -70.1497 main 560 555 _____________P -1 33.4493 -70.1497 TS 52 16 79
1878229N32286 1878 13 NA NA NOT_NAMED 1878-08-18 00:00:00 TS 33.6000 -69.2000 main 624 624 _____________O -1 33.6000 -69.2000 TS 55 16 79
1878229N32286 1878 13 NA NA NOT_NAMED 1878-08-18 03:00:00 TS 33.7493 -68.2497 main 705 701 _____________P -1 33.7493 -68.2497 TS 55 16 79
1878229N32286 1878 13 NA NA NOT_NAMED 1878-08-18 06:00:00 TS 33.9000 -67.3000 main 775 775 _____________O -1 33.9000 -67.3000 TS 55 16 79
1878229N32286 1878 13 NA NA NOT_NAMED 1878-08-18 09:00:00 TS 34.0491 -66.3571 main 851 851 _____________P -1 34.0491 -66.3571 TS 57 16 79
1878229N32286 1878 13 NA NA NOT_NAMED 1878-08-18 12:00:00 TS 34.2000 -65.4000 main 926 926 _____________O -1 34.2000 -65.4000 TS 60 16 79
1878229N32286 1878 13 NA NA NOT_NAMED 1878-08-18 15:00:00 TS 34.3494 -64.4072 main 957 948 _____________P -1 34.3494 -64.4072 TS 60 17 80
1878229N32286 1878 13 NA NA NOT_NAMED 1878-08-18 18:00:00 TS 34.5000 -63.4000 main 986 986 _____________O -1 34.5000 -63.4000 TS 60 17 84
1878229N32286 1878 13 NA NA NOT_NAMED 1878-08-18 21:00:00 TS 34.5229 -62.3439 main 1034 1009 _____________P -1 34.5229 -62.3439 TS 62 20 74
1878229N32286 1878 13 NA NA NOT_NAMED 1878-08-19 00:00:00 TS 35.0333 -61.1000 80 hurdat_atl main 1012 935 O____________O hurdat_atl AL031878 35.5000 -60.5000 HU 80 1 34.8000 -61.4000 HU 65 21 44
1878229N32286 1878 13 NA NA NOT_NAMED 1878-08-19 03:00:00 TS 35.9981 -60.5758 main 925 837 P____________P AL031878 36.3850 -60.4479 HU 80 1 35.6112 -60.7037 HU 67 22 18
1878229N32286 1878 13 NA NA NOT_NAMED 1878-08-19 06:00:00 TS 37.1000 -60.2800 80 hurdat_atl main 827 742 O____________O hurdat_atl AL031878 37.3000 -60.4000 HU 80 1 36.8000 -60.1000 HU 70 23 11
1878229N32286 1878 13 NA NA NOT_NAMED 1878-08-19 09:00:00 TS 38.2067 -60.0396 main 738 648 P____________P AL031878 38.2700 -60.3570 HU 80 1 38.0801 -59.4048 HU 70 23 10
1878229N32286 1878 13 NA NA NOT_NAMED 1878-08-19 12:00:00 TS 39.4000 -59.7667 80 hurdat_atl main 638 526 O____________O hurdat_atl AL031878 39.3000 -60.3000 HU 80 1 39.6000 -58.7000 HU 70 25 10
1878229N32286 1878 13 NA NA NOT_NAMED 1878-08-19 15:00:00 TS 40.6986 -59.4548 main 516 394 P____________P AL031878 40.4000 -60.2076 HU 80 1 41.2957 -57.9490 HU 70 26 7
1878229N32286 1878 13 NA NA NOT_NAMED 1878-08-19 18:00:00 TS 41.9636 -59.3364 80 hurdat_atl main 383 279 O____________O hurdat_atl AL031878 41.5000 -60.1000 HU 80 1 43.2000 -57.3000 HU 70 985 24 2
1878229N32286 1878 13 NA NA NOT_NAMED 1878-08-19 21:00:00 TS 43.0458 -59.3757 main 279 191 P____________P AL031878 42.4925 -59.9995 HU 80 1 45.2592 -56.8804 HU 65 20 356
1878229N32286 1878 13 NA NA NOT_NAMED 1878-08-20 00:00:00 MX 43.9333 -59.5333 80 hurdat_atl main 191 120 O____________O hurdat_atl AL031878 43.5000 -59.9000 HU 80 1 47.4000 -56.6000 EX 60 16 349
1878229N32286 1878 13 NA NA NOT_NAMED 1878-08-20 03:00:00 TS 44.6350 -59.7998 main 120 32 P_____________ AL031878 44.6350 -59.7998 HU 80 1 EX 19 356
1878229N32286 1878 13 NA NA NOT_NAMED 1878-08-20 06:00:00 TS 45.8000 -59.7000 80 963 hurdat_atl main 30 7 O_____________ hurdat_atl AL031878 45.8000 -59.7000 HU 80 963 1 23 3
1878229N32286 1878 13 NA NA NOT_NAMED 1878-08-20 09:00:00 TS 46.9373 -59.6210 main 54 7 P_____________ AL031878 46.9373 -59.6210 HU 75 1 22 4
1878229N32286 1878 13 NA NA NOT_NAMED 1878-08-20 12:00:00 TS 48.0000 -59.5000 70 hurdat_atl main 13 13 O_____________ hurdat_atl AL031878 48.0000 -59.5000 HU 70 1 20 6
1878229N32286 1878 13 NA NA NOT_NAMED 1878-08-20 15:00:00 TS 48.9749 -59.2876 main 44 44 P_____________ AL031878 48.9749 -59.2876 HU 70 1 18 10
1878229N32286 1878 13 NA NA NOT_NAMED 1878-08-20 18:00:00 TS 49.8000 -59.0000 70 hurdat_atl main 72 30 O_____________ hurdat_atl AL031878 49.8000 -59.0000 HU 70 1 16 14
1878229N32286 1878 13 NA NA NOT_NAMED 1878-08-20 21:00:00 TS 50.4897 -58.6869 main 30 22 P_____________ AL031878 50.4897 -58.6869 HU 65 1 13 20
1878229N32286 1878 13 NA NA NOT_NAMED 1878-08-21 00:00:00 ET 51.0000 -58.3000 60 hurdat_atl main 22 0 O_____________ hurdat_atl AL031878 51.0000 -58.3000 EX 60 -4 10 31
1878229N32286 1878 13 NA NA NOT_NAMED 1878-08-21 03:00:00 ET 51.3597 -57.8438 main 0 0 P_____________ AL031878 51.3597 -57.8438 EX 60 -4 9 46
1878229N32286 1878 13 NA NA NOT_NAMED 1878-08-21 06:00:00 ET 51.6000 -57.3000 60 hurdat_atl main 0 0 O_____________ hurdat_atl AL031878 51.6000 -57.3000 EX 60 -4 9 57
1878229N32286 1878 13 NA NA NOT_NAMED 1878-08-21 09:00:00 ET 51.8297 -56.6872 main 0 0 P_____________ AL031878 51.8297 -56.6872 EX 60 -4 9 64
1878229N32286 1878 13 NA NA NOT_NAMED 1878-08-21 12:00:00 ET 52.0000 -56.0000 60 hurdat_atl main 0 0 O_____________ hurdat_atl AL031878 52.0000 -56.0000 EX 60 -4 9 72
1878229N32286 1878 13 NA NA NOT_NAMED 1878-08-21 15:00:00 ET 52.1160 -55.2628 main 27 27 P_____________ AL031878 52.1160 -55.2628 EX 60 -4 9 78
1878229N32286 1878 13 NA NA NOT_NAMED 1878-08-21 18:00:00 ET 52.2000 -54.5000 60 hurdat_atl main 77 O_____________ hurdat_atl AL031878 52.2000 -54.5000 EX 60 -4 9 80

IBTrACS Databaseについて

本データベースは、米国NOAAが公開する1842年以降の世界の熱帯低気圧のベストトラックデータアーカイブInternational Best Track Archive for Climate Stewardship (IBTrACS)を、ウェブで閲覧しやすい形式に変換したものです。

最終更新日:2021-10-21